Time;durP1;ratioP1;P1;durP2;ratioP2;P2;SDS_P1;SDS_P2;PMS_P1;PMS_P2;Temp;Humidity;BMP_temperature;BMP_pressure;BME280_temperature;BME280_humidity;BME280_pressure;Samples;Min_cycle;Max_cycle;Signal;HPM_P1;HPM_P2
2021/01/11 00:00:21;;;;;;;9.60;4.50;;;-0.40;65.20;;;;;;2262104;56;20945;-68
2021/01/11 00:02:48;;;;;;;9.82;4.62;;;-0.40;65.10;;;;;;2261418;56;20997;-67
2021/01/11 00:05:15;;;;;;;8.50;4.40;;;-0.40;65.30;;;;;;2487884;55;21076;-68
2021/01/11 00:07:42;;;;;;;8.52;4.32;;;-0.40;65.10;;;;;;2483697;55;20985;-67
2021/01/11 00:10:12;;;;;;;10.65;4.55;;;-0.40;65.10;;;;;;2463673;55;21556;-68
2021/01/11 00:12:43;;;;;;;9.07;4.60;;;-0.50;65.00;;;;;;2261255;56;20993;-68
2021/01/11 00:15:13;;;;;;;8.38;4.22;;;-0.50;64.90;;;;;;2475296;55;21765;-68
2021/01/11 00:17:39;;;;;;;9.90;4.85;;;-0.50;65.00;;;;;;2263137;56;21410;-67
2021/01/11 00:20:07;;;;;;;9.43;4.65;;;-0.50;64.90;;;;;;2489746;55;20969;-68
2021/01/11 00:22:34;;;;;;;12.40;5.10;;;-0.50;65.00;;;;;;2490285;55;20989;-68
2021/01/11 00:25:02;;;;;;;9.68;4.90;;;-0.50;65.00;;;;;;2484591;55;20997;-68
2021/01/11 00:27:28;;;;;;;11.32;5.20;;;-0.50;65.00;;;;;;2490660;55;21012;-68
2021/01/11 00:29:55;;;;;;;9.68;4.40;;;-0.50;64.90;;;;;;2489760;55;21000;-67
2021/01/11 00:32:21;;;;;;;9.98;4.90;;;-0.50;65.00;;;;;;2261567;56;21064;-67
2021/01/11 00:34:47;;;;;;;10.82;4.70;;;-0.50;64.90;;;;;;2481270;55;21004;-68
2021/01/11 00:37:14;;;;;;;8.40;4.00;;;-0.60;64.80;;;;;;2489018;55;21006;-67
2021/01/11 00:39:41;;;;;;;9.15;4.28;;;-0.60;64.80;;;;;;2489638;55;20960;-68
2021/01/11 00:45:35;;;;;;;9.98;4.65;;;-0.60;64.70;;;;;;2481702;55;20973;-68
2021/01/11 00:48:01;;;;;;;10.93;4.90;;;-0.60;64.70;;;;;;2487840;55;20964;-68
2021/01/11 00:50:27;;;;;;;9.63;4.65;;;-0.60;64.80;;;;;;2490254;55;20981;-68
2021/01/11 00:53:21;;;;;;;9.23;4.43;;;-0.60;64.80;;;;;;2485761;55;20952;-68
2021/01/11 00:55:48;;;;;;;9.93;4.82;;;-0.70;64.70;;;;;;2489325;55;20977;-68
2021/01/11 00:58:15;;;;;;;8.95;4.15;;;-0.70;64.70;;;;;;2484239;55;20965;-68
2021/01/11 01:00:41;;;;;;;9.38;4.53;;;-0.70;64.80;;;;;;2468326;55;20960;-67
2021/01/11 01:03:08;;;;;;;9.40;4.28;;;-0.70;64.80;;;;;;2486526;55;20985;-67
2021/01/11 01:05:35;;;;;;;9.57;4.40;;;-0.70;64.80;;;;;;2265641;56;21013;-68
2021/01/11 01:08:01;;;;;;;8.30;4.00;;;-0.70;64.90;;;;;;2482213;55;20965;-68
2021/01/11 01:10:28;;;;;;;8.43;4.18;;;-0.70;64.70;;;;;;2480090;55;21027;-68
2021/01/11 01:12:54;;;;;;;10.30;4.25;;;-0.70;64.70;;;;;;2485179;55;20985;-68
2021/01/11 01:15:21;;;;;;;9.00;4.20;;;-0.70;64.70;;;;;;2261581;56;20945;-68
2021/01/11 01:17:47;;;;;;;9.95;4.47;;;-0.70;64.70;;;;;;2267848;56;21814;-68
2021/01/11 01:20:17;;;;;;;8.63;4.32;;;-0.70;64.70;;;;;;2461127;55;20945;-68
2021/01/11 01:22:52;;;;;;;9.07;4.57;;;-0.70;64.70;;;;;;2478930;55;21036;-68
2021/01/11 01:25:19;;;;;;;9.80;4.40;;;-0.70;64.70;;;;;;2256955;56;20949;-68
2021/01/11 01:27:45;;;;;;;11.48;4.47;;;-0.70;64.70;;;;;;2260784;56;20945;-68
2021/01/11 01:30:12;;;;;;;10.02;4.00;;;-0.80;64.50;;;;;;2489954;55;21013;-68
2021/01/11 01:32:38;;;;;;;9.35;4.62;;;-0.80;64.50;;;;;;2489998;55;21051;-67
2021/01/11 01:35:08;;;;;;;7.40;3.55;;;-0.80;64.50;;;;;;2488778;55;21018;-67
2021/01/11 01:37:34;;;;;;;10.52;4.47;;;-0.80;64.40;;;;;;2264488;56;20965;-67
2021/01/11 01:40:02;;;;;;;9.10;4.45;;;-0.80;64.40;;;;;;2260209;56;20985;-67
2021/01/11 01:42:29;;;;;;;8.38;4.10;;;-0.80;64.30;;;;;;2486660;55;21290;-67
2021/01/11 01:44:55;;;;;;;7.60;3.60;;;-0.80;64.30;;;;;;2486474;55;21008;-68
2021/01/11 01:47:21;;;;;;;9.65;4.18;;;-0.80;64.30;;;;;;2260861;56;20964;-68
2021/01/11 01:49:48;;;;;;;8.75;4.62;;;-0.80;64.20;;;;;;2483061;55;20969;-68
2021/01/11 01:52:15;;;;;;;9.38;4.57;;;-0.80;64.20;;;;;;2483510;55;20970;-68
2021/01/11 01:54:41;;;;;;;8.63;4.35;;;-0.90;64.10;;;;;;2264446;56;21020;-68
2021/01/11 01:57:08;;;;;;;9.32;4.45;;;-0.90;64.10;;;;;;2486733;55;21446;-67
2021/01/11 01:59:34;;;;;;;8.82;4.37;;;-0.90;64.10;;;;;;2490980;55;21048;-68
2021/01/11 02:02:01;;;;;;;9.05;4.25;;;-0.90;64.00;;;;;;2264117;56;20957;-69
2021/01/11 02:04:34;;;;;;;9.20;4.20;;;-0.90;64.00;;;;;;2480387;55;21026;-68
2021/01/11 02:07:04;;;;;;;9.73;4.93;;;-0.90;64.00;;;;;;2490988;55;20957;-67
2021/01/11 02:09:53;;;;;;;9.50;4.68;;;-0.90;64.10;;;;;;2486475;55;20948;-69
2021/01/11 02:12:22;;;;;;;9.82;4.60;;;-1.00;63.90;;;;;;2261757;56;20996;-68
2021/01/11 02:15:04;;;;;;;7.62;3.83;;;-1.00;64.00;;;;;;2480793;55;20993;-68
2021/01/11 02:17:59;;;;;;;9.77;4.32;;;-1.00;64.00;;;;;;2491482;55;20957;-69
2021/01/11 02:23:13;;;;;;;8.10;3.87;;;-1.00;64.00;;;;;;2247557;56;21004;-68
2021/01/11 02:25:49;;;;;;;7.53;3.60;;;-1.00;64.00;;;;;;2486541;55;20956;-68
2021/01/11 02:33:49;;;;;;;9.75;4.45;;;-1.00;64.10;;;;;;2265257;56;21056;-67
2021/01/11 02:36:16;;;;;;;8.02;3.42;;;-1.00;64.00;;;;;;2261945;56;21020;-68
2021/01/11 02:38:44;;;;;;;13.18;5.28;;;-1.00;64.10;;;;;;2266604;56;21029;-68
2021/01/11 02:41:10;;;;;;;13.57;5.55;;;-1.10;64.00;;;;;;2486491;55;20970;-68
2021/01/11 02:43:37;;;;;;;11.43;4.87;;;-1.10;64.00;;;;;;2262120;56;20953;-67
2021/01/11 02:46:03;;;;;;;11.60;4.75;;;-1.10;64.10;;;;;;2261551;56;21017;-68
2021/01/11 02:50:03;;;;;;;10.90;4.85;;;-1.10;64.20;;;;;;2264300;56;21084;-68
2021/01/11 02:54:33;;;;;;;9.57;4.05;;;-1.10;63.90;;;;;;2490239;55;21824;-68
2021/01/11 02:57:31;;;;;;;9.60;4.30;;;-1.10;64.10;;;;;;2485201;55;20941;-68
2021/01/11 03:00:11;;;;;;;10.05;4.65;;;-1.10;63.90;;;;;;2484076;55;21485;-69
2021/01/11 03:02:40;;;;;;;10.65;4.45;;;-1.10;63.80;;;;;;2262855;56;20985;-68
2021/01/11 03:05:07;;;;;;;9.00;4.62;;;-1.20;63.60;;;;;;2258044;56;20957;-69
2021/01/11 03:07:34;;;;;;;10.18;4.20;;;-1.20;63.60;;;;;;2489624;55;21008;-68
2021/01/11 03:10:01;;;;;;;12.18;4.72;;;-1.20;63.60;;;;;;2490082;55;21025;-68
2021/01/11 03:12:27;;;;;;;10.35;4.55;;;-1.30;63.40;;;;;;2260952;56;20996;-68
2021/01/11 03:14:54;;;;;;;9.32;4.12;;;-1.30;63.40;;;;;;2481412;55;21052;-69
2021/01/11 03:17:20;;;;;;;9.07;4.15;;;-1.30;63.40;;;;;;2489848;55;20933;-69
2021/01/11 03:19:49;;;;;;;10.75;4.43;;;-1.40;63.30;;;;;;2490399;55;21388;-68
2021/01/11 03:22:49;;;;;;;9.13;4.18;;;-1.40;63.40;;;;;;2487892;55;21025;-68
2021/01/11 03:25:16;;;;;;;10.05;4.28;;;-1.40;63.40;;;;;;2483884;55;21065;-68
2021/01/11 03:27:42;;;;;;;9.15;4.28;;;-1.40;63.50;;;;;;2490756;55;21009;-68
2021/01/11 03:30:08;;;;;;;9.93;4.62;;;-1.40;63.50;;;;;;2485178;55;20961;-67
2021/01/11 03:32:35;;;;;;;9.93;4.35;;;-1.40;63.70;;;;;;2488218;55;20965;-68
2021/01/11 03:35:19;;;;;;;9.88;4.53;;;-1.40;63.80;;;;;;2482670;55;21884;-68
2021/01/11 03:37:46;;;;;;;8.70;4.28;;;-1.40;63.80;;;;;;2485636;55;20937;-68
2021/01/11 03:40:13;;;;;;;10.98;4.78;;;-1.40;63.90;;;;;;2488048;55;20913;-68
2021/01/11 03:42:40;;;;;;;10.13;4.70;;;-1.40;63.90;;;;;;2485349;55;20953;-67
2021/01/11 03:45:10;;;;;;;10.48;4.95;;;-1.40;63.90;;;;;;2491307;55;20973;-69
2021/01/11 03:47:36;;;;;;;10.32;4.65;;;-1.40;63.90;;;;;;2478922;55;21034;-69
2021/01/11 03:50:06;;;;;;;12.37;4.97;;;-1.40;63.90;;;;;;2489840;55;21733;-69
2021/01/11 03:52:40;;;;;;;8.90;4.25;;;-1.40;64.00;;;;;;2485508;55;20991;-68
2021/01/11 03:55:08;;;;;;;10.98;4.32;;;-1.40;64.00;;;;;;2486112;55;20990;-67
2021/01/11 03:57:34;;;;;;;11.05;4.82;;;-1.40;64.00;;;;;;2265540;56;21001;-69
2021/01/11 04:00:01;;;;;;;11.48;5.68;;;-1.40;64.00;;;;;;2485970;55;20997;-68
2021/01/11 04:05:57;;;;;;;10.27;4.87;;;-1.40;64.00;;;;;;2489443;55;20958;-69
2021/01/11 04:08:24;;;;;;;9.70;4.65;;;-1.40;64.00;;;;;;2484847;55;21013;-69
2021/01/11 04:10:51;;;;;;;9.35;4.53;;;-1.40;64.00;;;;;;2484588;55;21807;-69
2021/01/11 04:13:17;;;;;;;11.02;5.45;;;-1.40;64.00;;;;;;2489089;55;20980;-68
2021/01/11 04:15:44;;;;;;;10.07;4.60;;;-1.40;64.00;;;;;;2490512;55;21017;-68
2021/01/11 04:18:11;;;;;;;10.93;4.80;;;-1.40;64.00;;;;;;2484843;55;22172;-69
2021/01/11 04:20:37;;;;;;;9.95;4.90;;;-1.40;64.00;;;;;;2488337;55;20961;-69
2021/01/11 04:23:04;;;;;;;8.57;4.45;;;-1.40;64.10;;;;;;2490218;55;20985;-69
2021/01/11 04:25:31;;;;;;;11.20;4.72;;;-1.40;64.20;;;;;;2486633;55;21052;-69
2021/01/11 04:27:59;;;;;;;11.93;4.93;;;-1.40;64.20;;;;;;2484774;55;21843;-68
2021/01/11 04:30:59;;;;;;;10.93;4.78;;;-1.40;64.20;;;;;;2483767;55;20977;-69
2021/01/11 04:33:25;;;;;;;9.55;3.87;;;-1.40;64.10;;;;;;2486359;55;20977;-69
2021/01/11 04:35:54;;;;;;;11.73;4.70;;;-1.30;64.20;;;;;;2482609;55;21049;-68
2021/01/11 04:38:21;;;;;;;10.82;4.82;;;-1.40;64.00;;;;;;2242764;56;20941;-68
2021/01/11 04:40:48;;;;;;;9.40;4.68;;;-1.40;64.00;;;;;;2489309;55;21038;-69
2021/01/11 04:43:15;;;;;;;10.27;4.85;;;-1.30;64.00;;;;;;2490049;55;21014;-69
2021/01/11 04:45:42;;;;;;;10.23;4.55;;;-1.40;63.90;;;;;;2486409;55;20960;-67
2021/01/11 04:48:09;;;;;;;9.55;4.15;;;-1.30;63.80;;;;;;2488271;55;21083;-68
2021/01/11 04:50:36;;;;;;;8.40;4.25;;;-1.40;63.60;;;;;;2486421;55;20972;-68
2021/01/11 04:53:10;;;;;;;8.45;3.87;;;-1.40;63.40;;;;;;2264452;56;21137;-68
2021/01/11 04:55:37;;;;;;;10.15;4.60;;;-1.50;63.20;;;;;;2261437;56;20988;-68
2021/01/11 04:58:09;;;;;;;9.55;4.37;;;-1.50;63.20;;;;;;2483881;55;20989;-69
2021/01/11 05:00:40;;;;;;;9.40;4.00;;;-1.50;63.10;;;;;;2261911;56;21057;-68
2021/01/11 05:03:09;;;;;;;11.18;4.93;;;-1.60;63.00;;;;;;2258352;56;21009;-68
2021/01/11 05:05:59;;;;;;;11.38;4.80;;;-1.60;63.00;;;;;;2253750;56;21067;-68
2021/01/11 05:08:35;;;;;;;9.85;4.32;;;-1.60;63.20;;;;;;2476888;55;20977;-68
2021/01/11 05:11:02;;;;;;;11.40;5.15;;;-1.60;63.30;;;;;;2483166;55;21025;-68
2021/01/11 05:13:29;;;;;;;11.07;5.53;;;-1.60;63.60;;;;;;2490171;55;21480;-68
2021/01/11 05:15:59;;;;;;;12.32;5.70;;;-1.60;63.70;;;;;;2488313;55;21073;-68
2021/01/11 05:18:31;;;;;;;11.12;4.87;;;-1.60;63.90;;;;;;2482312;55;21720;-68
2021/01/11 05:20:58;;;;;;;8.55;4.05;;;-1.60;64.00;;;;;;2259316;56;20981;-68
2021/01/11 05:23:24;;;;;;;9.50;4.87;;;-1.60;64.00;;;;;;2488541;55;21016;-69
2021/01/11 05:25:59;;;;;;;9.95;5.05;;;-1.60;64.00;;;;;;2484921;55;20961;-68
2021/01/11 05:28:27;;;;;;;10.32;4.40;;;-1.60;63.90;;;;;;2487692;55;21918;-68
2021/01/11 05:30:57;;;;;;;10.40;4.12;;;-1.60;63.90;;;;;;2485951;55;20930;-69
2021/01/11 05:33:26;;;;;;;9.25;4.35;;;-1.60;63.90;;;;;;2485062;55;21029;-68
2021/01/11 05:36:05;;;;;;;13.98;6.03;;;-1.60;63.80;;;;;;2485732;55;20981;-68
2021/01/11 05:38:40;;;;;;;13.48;5.32;;;-1.80;63.60;;;;;;2485657;55;21371;-68
2021/01/11 05:41:20;;;;;;;25.88;10.63;;;-1.60;63.80;;;;;;2488474;55;21036;-68
2021/01/11 05:44:12;;;;;;;18.05;6.45;;;-1.60;63.80;;;;;;2488030;55;21080;-68
2021/01/11 05:46:39;;;;;;;16.30;7.55;;;-1.60;63.70;;;;;;2261008;56;20993;-68
2021/01/11 05:49:09;;;;;;;21.77;9.50;;;-1.60;63.70;;;;;;2481527;55;20953;-68
2021/01/11 05:51:37;;;;;;;14.05;6.53;;;-1.70;63.60;;;;;;2261011;56;20957;-68
2021/01/11 05:54:03;;;;;;;10.57;4.97;;;-1.60;63.70;;;;;;2485224;55;21069;-68
2021/01/11 05:56:52;;;;;;;11.82;5.30;;;-1.70;63.60;;;;;;2489602;55;20969;-68
2021/01/11 05:59:37;;;;;;;11.63;5.25;;;-1.60;63.80;;;;;;2485911;55;20933;-67
2021/01/11 06:02:10;;;;;;;10.32;5.12;;;-1.70;63.80;;;;;;2263459;56;20988;-68
2021/01/11 06:04:36;;;;;;;;;;;-1.60;64.00;;;;;;2488110;55;20965;-67
2021/01/11 06:07:04;;;;;;;11.15;4.60;;;-1.60;63.70;;;;;;2261447;56;20124;-68
2021/01/11 06:09:32;;;;;;;12.55;5.97;;;-1.60;64.00;;;;;;2489891;55;20944;-68
2021/01/11 06:11:59;;;;;;;13.07;5.75;;;-1.60;64.00;;;;;;2474731;55;20962;-68
2021/01/11 06:14:26;;;;;;;11.15;5.57;;;-1.60;64.00;;;;;;2260716;56;20949;-68
2021/01/11 06:16:52;;;;;;;12.50;5.57;;;-1.60;64.00;;;;;;2486476;55;20917;-68
2021/01/11 06:19:19;;;;;;;14.27;7.53;;;-1.60;64.20;;;;;;2485519;55;21009;-67
2021/01/11 06:21:51;;;;;;;14.87;8.25;;;-1.60;64.30;;;;;;2262900;56;20961;-69
2021/01/11 06:24:18;;;;;;;16.95;8.55;;;-1.60;64.40;;;;;;2487617;55;20963;-67
2021/01/11 06:26:46;;;;;;;17.95;10.02;;;-1.60;64.70;;;;;;2489838;55;20960;-68
2021/01/11 06:29:30;;;;;;;15.75;8.57;;;-1.60;64.80;;;;;;2485170;55;21816;-68
2021/01/11 06:31:57;;;;;;;14.07;7.07;;;-1.50;64.90;;;;;;2261490;56;21009;-68
2021/01/11 06:34:37;;;;;;;18.73;9.13;;;-1.50;64.80;;;;;;2486459;55;21012;-68
2021/01/11 06:37:27;;;;;;;30.08;12.13;;;-1.40;64.60;;;;;;2261488;56;21229;-68
2021/01/11 06:39:54;;;;;;;78.45;23.67;;;-1.40;64.50;;;;;;2490392;55;20972;-68
2021/01/11 06:42:20;;;;;;;58.45;21.48;;;-1.50;64.20;;;;;;2488737;55;21468;-68
2021/01/11 06:44:48;;;;;;;32.05;12.70;;;-1.40;64.20;;;;;;2485981;55;20948;-68
2021/01/11 06:47:32;;;;;;;28.35;11.75;;;-1.40;64.20;;;;;;2479885;55;20956;-68
2021/01/11 06:50:06;;;;;;;24.05;11.02;;;-1.40;64.00;;;;;;2487586;55;22470;-68
2021/01/11 06:52:36;;;;;;;24.00;10.68;;;-1.50;64.00;;;;;;2488708;55;20953;-68
2021/01/11 06:55:16;;;;;;;16.73;8.18;;;-1.40;64.00;;;;;;2261215;56;20943;-68
2021/01/11 06:57:46;;;;;;;18.73;8.48;;;-1.50;64.00;;;;;;2489076;55;21862;-67
2021/01/11 07:00:13;;;;;;;17.80;7.78;;;-1.50;64.10;;;;;;2486448;55;21001;-67
2021/01/11 07:02:41;;;;;;;16.48;7.22;;;-1.50;64.30;;;;;;2490039;55;20949;-67
2021/01/11 07:05:53;;;;;;;19.50;9.02;;;-1.40;64.60;;;;;;2485843;55;21000;-68
2021/01/11 07:08:21;;;;;;;10.07;4.80;;;-1.50;64.50;;;;;;2490078;55;21032;-68
2021/01/11 07:11:03;;;;;;;16.67;7.75;;;-1.40;64.50;;;;;;2485874;55;20941;-68
2021/01/11 07:13:29;;;;;;;17.12;8.43;;;-1.40;64.50;;;;;;2260643;56;21016;-68
2021/01/11 07:16:17;;;;;;;17.00;8.30;;;-1.40;64.60;;;;;;2490545;55;20966;-68
2021/01/11 07:18:47;;;;;;;18.67;8.30;;;-1.30;64.70;;;;;;2485708;55;21021;-69
2021/01/11 07:21:17;;;;;;;18.65;9.30;;;-1.30;64.80;;;;;;2487868;55;21850;-68
2021/01/11 07:23:44;;;;;;;16.15;7.35;;;-1.40;64.70;;;;;;2261941;56;21004;-68
2021/01/11 07:26:14;;;;;;;20.65;8.57;;;-1.20;64.90;;;;;;2246653;56;20957;-68
2021/01/11 07:28:49;;;;;;;18.55;8.23;;;-1.30;64.70;;;;;;2489277;55;21501;-67
2021/01/11 07:31:22;;;;;;;17.27;7.95;;;-1.30;64.60;;;;;;2489441;55;20946;-69
2021/01/11 07:34:01;;;;;;;17.75;8.20;;;-1.30;64.60;;;;;;2490513;55;21461;-69
2021/01/11 07:36:35;;;;;;;17.00;7.25;;;-1.30;64.50;;;;;;2261878;56;21028;-68
2021/01/11 07:39:18;;;;;;;13.88;6.68;;;-1.30;64.50;;;;;;2489712;55;21392;-68
2021/01/11 07:41:46;;;;;;;16.02;6.50;;;-1.30;64.40;;;;;;2485513;55;20961;-68
2021/01/11 07:44:33;;;;;;;18.23;7.60;;;-1.20;64.40;;;;;;2488831;55;21536;-68
2021/01/11 07:47:13;;;;;;;15.10;7.10;;;-1.20;64.20;;;;;;2261767;56;20992;-68
2021/01/11 07:49:40;;;;;;;15.68;7.53;;;-1.20;64.20;;;;;;2263024;56;21293;-68
2021/01/11 07:52:17;;;;;;;19.27;8.63;;;-1.20;64.20;;;;;;2491275;55;21041;-69
2021/01/11 07:54:44;;;;;;;17.50;8.27;;;-1.20;64.10;;;;;;2472457;55;21481;-68
2021/01/11 07:57:11;;;;;;;19.85;9.00;;;-1.20;64.10;;;;;;2263799;56;21037;-68
2021/01/11 07:59:38;;;;;;;19.40;9.40;;;-1.30;64.00;;;;;;2485303;55;20961;-69
2021/01/11 08:02:08;;;;;;;20.85;9.90;;;-1.20;64.10;;;;;;2486949;55;21256;-69
2021/01/11 08:04:36;;;;;;;20.52;9.05;;;-1.20;64.20;;;;;;2489006;55;20961;-68
2021/01/11 08:07:11;;;;;;;15.90;7.43;;;-1.20;64.10;;;;;;2490079;55;20949;-68
2021/01/11 08:09:39;;;;;;;19.90;8.70;;;-1.30;63.90;;;;;;2486539;55;21010;-68
2021/01/11 08:12:15;;;;;;;17.40;7.95;;;-1.30;63.90;;;;;;2489862;55;21025;-68
2021/01/11 08:14:44;;;;;;;18.90;8.00;;;-1.30;63.90;;;;;;2484169;55;20997;-69
2021/01/11 08:17:24;;;;;;;13.77;7.12;;;-1.30;64.00;;;;;;2485670;55;20993;-69
2021/01/11 08:19:58;;;;;;;16.20;7.22;;;-1.30;64.00;;;;;;2263120;56;20973;-68
2021/01/11 08:22:28;;;;;;;15.07;7.37;;;-1.30;64.10;;;;;;2485414;55;21473;-67
2021/01/11 08:24:56;;;;;;;17.17;7.40;;;-1.20;64.30;;;;;;2487298;55;20940;-68
2021/01/11 08:28:11;;;;;;;12.00;6.62;;;-1.20;64.40;;;;;;2488844;55;20925;-68
2021/01/11 08:30:38;;;;;;;16.15;7.47;;;-1.20;64.50;;;;;;2485998;55;21020;-69
2021/01/11 08:33:07;;;;;;;19.23;8.27;;;-1.20;64.50;;;;;;2485194;55;21012;-68
2021/01/11 08:35:33;;;;;;;17.55;8.55;;;-1.20;64.60;;;;;;2261110;56;21471;-68
2021/01/11 08:38:00;;;;;;;13.10;6.30;;;-1.20;64.60;;;;;;2466502;55;1337305;-67
2021/01/11 08:40:32;;;;;;;17.20;8.02;;;-1.10;64.90;;;;;;2485287;55;21065;-68
2021/01/11 08:43:12;;;;;;;16.35;7.75;;;-1.20;64.90;;;;;;2487008;55;20945;-68
2021/01/11 08:45:40;;;;;;;17.00;8.40;;;-1.10;65.00;;;;;;2263957;56;20968;-69
2021/01/11 08:48:14;;;;;;;17.90;8.55;;;-1.10;65.10;;;;;;2485635;55;21080;-68
2021/01/11 08:51:42;;;;;;;16.58;8.35;;;-1.00;65.30;;;;;;2487077;55;21005;-68
2021/01/11 08:54:09;;;;;;;15.80;7.87;;;-1.00;65.40;;;;;;2266793;56;20973;-68
2021/01/11 08:56:37;;;;;;;15.05;7.28;;;-0.90;65.50;;;;;;2257752;56;20969;-68
2021/01/11 08:59:11;;;;;;;14.85;7.25;;;-0.90;65.60;;;;;;2261533;56;20956;-69
2021/01/11 09:01:38;;;;;;;16.90;7.57;;;-0.90;65.70;;;;;;2489410;55;20989;-68
2021/01/11 09:04:07;;;;;;;18.40;8.55;;;-0.80;65.80;;;;;;2490434;55;20965;-68
2021/01/11 09:06:41;;;;;;;18.62;8.82;;;-0.80;65.90;;;;;;2262346;56;20984;-69
2021/01/11 09:09:14;;;;;;;19.87;8.85;;;-0.80;66.00;;;;;;2263599;56;20997;-68
2021/01/11 09:11:40;;;;;;;20.58;9.75;;;-0.70;66.20;;;;;;2486506;55;21021;-68
2021/01/11 09:14:12;;;;;;;18.08;8.02;;;-0.60;66.40;;;;;;2486940;55;20973;-69
2021/01/11 09:16:39;;;;;;;23.03;10.40;;;-0.60;66.60;;;;;;2484145;55;20992;-68
2021/01/11 09:19:18;;;;;;;20.05;9.85;;;-0.50;66.70;;;;;;2260848;56;22000;-69
2021/01/11 09:21:45;;;;;;;21.65;10.63;;;-0.40;66.90;;;;;;2488965;55;21845;-68
2021/01/11 09:24:11;;;;;;;22.92;10.23;;;-0.40;67.00;;;;;;2489772;55;21002;-69
2021/01/11 09:26:39;;;;;;;24.87;11.82;;;-0.30;67.00;;;;;;2258605;56;20989;-69
2021/01/11 09:29:08;;;;;;;24.05;11.70;;;-0.20;67.20;;;;;;2489921;55;20966;-68
2021/01/11 09:31:35;;;;;;;18.05;8.82;;;-0.20;67.20;;;;;;2263063;56;21009;-68
2021/01/11 09:34:03;;;;;;;23.60;9.80;;;-0.10;67.40;;;;;;2260837;56;21020;-69
2021/01/11 09:36:36;;;;;;;20.30;9.13;;;0.00;67.50;;;;;;2260165;56;20960;-69
2021/01/11 09:39:07;;;;;;;21.40;9.30;;;0.10;67.70;;;;;;2489765;55;21048;-69
2021/01/11 09:41:47;;;;;;;19.00;9.35;;;0.10;67.80;;;;;;2490247;55;20988;-69
2021/01/11 09:44:16;;;;;;;19.17;9.00;;;0.20;67.80;;;;;;2262991;56;21974;-68
2021/01/11 09:46:47;;;;;;;20.85;9.05;;;0.40;68.10;;;;;;2489332;55;20929;-69
2021/01/11 09:49:13;;;;;;;20.90;9.45;;;0.40;68.20;;;;;;2488435;55;21462;-70
2021/01/11 09:51:40;;;;;;;27.25;10.27;;;0.50;68.30;;;;;;2485972;55;20937;-69
2021/01/11 09:54:06;;;;;;;24.87;10.55;;;0.60;68.40;;;;;;2490396;55;20944;-69
2021/01/11 09:56:33;;;;;;;27.58;11.68;;;0.70;68.40;;;;;;2262270;56;20973;-69
2021/01/11 09:59:00;;;;;;;73.00;21.40;;;0.70;68.40;;;;;;2489756;55;20969;-69
2021/01/11 10:01:45;;;;;;;37.92;15.25;;;0.80;68.50;;;;;;2486133;55;20977;-69
2021/01/11 10:04:12;;;;;;;58.53;19.80;;;0.90;68.50;;;;;;2488076;55;20973;-69
2021/01/11 10:06:46;;;;;;;50.78;17.37;;;1.00;68.70;;;;;;2263400;56;21017;-70
2021/01/11 10:09:17;;;;;;;48.22;16.55;;;1.10;68.70;;;;;;2485761;55;21755;-70
2021/01/11 10:11:59;;;;;;;35.03;14.52;;;1.20;69.10;;;;;;2487858;55;20980;-70
2021/01/11 10:14:25;;;;;;;65.57;19.50;;;1.40;69.70;;;;;;2491347;55;20929;-70
2021/01/11 10:16:55;;;;;;;66.25;20.62;;;1.50;70.10;;;;;;2261866;56;21838;-70
2021/01/11 10:19:26;;;;;;;81.20;24.70;;;1.70;70.60;;;;;;2470139;55;21881;-70
2021/01/11 10:21:52;;;;;;;61.50;21.17;;;1.90;70.70;;;;;;2252555;56;21045;-69
2021/01/11 10:24:21;;;;;;;31.10;15.20;;;2.00;70.50;;;;;;2488200;55;20941;-70
2021/01/11 10:26:48;;;;;;;33.45;14.35;;;2.20;70.30;;;;;;2490635;55;20920;-69
2021/01/11 10:29:17;;;;;;;34.85;14.50;;;2.30;69.90;;;;;;2490723;55;20953;-70
2021/01/11 10:31:44;;;;;;;45.50;17.02;;;2.40;69.60;;;;;;2490411;55;21028;-70
2021/01/11 10:34:11;;;;;;;38.67;14.57;;;2.50;69.50;;;;;;2491028;55;21124;-70
2021/01/11 10:36:44;;;;;;;28.60;13.07;;;2.60;69.30;;;;;;2261482;56;21017;-70
2021/01/11 10:39:11;;;;;;;24.30;11.60;;;2.70;69.10;;;;;;2491318;55;20941;-69
2021/01/11 10:41:37;;;;;;;23.25;10.98;;;2.70;68.90;;;;;;2485174;55;20933;-70
2021/01/11 10:44:09;;;;;;;20.35;10.18;;;2.80;68.80;;;;;;2260791;56;20978;-70
2021/01/11 10:46:35;;;;;;;24.25;11.12;;;2.80;68.70;;;;;;2486522;55;21306;-70
2021/01/11 10:49:03;;;;;;;19.87;10.13;;;2.90;68.50;;;;;;2487816;55;21240;-71
2021/01/11 10:51:33;;;;;;;20.15;9.75;;;2.90;68.50;;;;;;2487438;55;21084;-69
2021/01/11 10:54:00;;;;;;;20.75;10.45;;;2.90;68.60;;;;;;2261880;56;21481;-69
2021/01/11 10:56:27;;;;;;;20.25;10.88;;;3.00;69.70;;;;;;2265849;56;21012;-69
2021/01/11 10:58:55;;;;;;;20.05;11.00;;;3.20;71.40;;;;;;2484231;55;20981;-70
2021/01/11 11:01:21;;;;;;;16.60;9.38;;;3.40;72.90;;;;;;2258524;56;20953;-70
2021/01/11 11:03:48;;;;;;;17.60;9.70;;;3.80;73.90;;;;;;2490325;55;20977;-71
2021/01/11 11:06:18;;;;;;;16.98;9.93;;;4.20;74.80;;;;;;2261996;56;20925;-69
2021/01/11 11:08:44;;;;;;;13.98;8.55;;;4.60;75.50;;;;;;2266289;56;21005;-70
2021/01/11 11:11:11;;;;;;;20.42;11.65;;;5.10;75.90;;;;;;2487710;55;21009;-69
2021/01/11 11:13:41;;;;;;;18.62;10.80;;;5.60;76.10;;;;;;2259535;56;20937;-69
2021/01/11 11:16:09;;;;;;;15.30;8.88;;;6.00;75.60;;;;;;2489756;55;21025;-70
2021/01/11 11:18:37;;;;;;;17.70;10.40;;;6.40;75.10;;;;;;2261405;56;21057;-70
2021/01/11 11:21:10;;;;;;;14.80;9.13;;;6.80;74.70;;;;;;2484233;55;20945;-70
2021/01/11 11:23:36;;;;;;;16.42;9.73;;;7.20;73.50;;;;;;2488350;55;21037;-70
2021/01/11 11:26:03;;;;;;;16.90;9.27;;;7.50;73.20;;;;;;2258329;56;20973;-70
2021/01/11 11:28:30;;;;;;;12.80;8.27;;;7.70;71.70;;;;;;2489913;55;20949;-70
2021/01/11 11:30:57;;;;;;;12.20;7.78;;;7.90;70.30;;;;;;2261296;56;20985;-70
2021/01/11 11:33:24;;;;;;;11.90;7.32;;;8.00;68.80;;;;;;2490460;55;21445;-70
2021/01/11 11:35:53;;;;;;;12.00;7.45;;;8.00;67.70;;;;;;2486522;55;20977;-70
2021/01/11 11:38:19;;;;;;;13.27;7.75;;;8.00;66.70;;;;;;2486599;55;21029;-71
2021/01/11 11:40:46;;;;;;;15.35;8.68;;;7.90;65.50;;;;;;2484291;55;21108;-69
2021/01/11 11:43:13;;;;;;;13.43;7.60;;;7.80;65.10;;;;;;2483134;55;21129;-70
2021/01/11 11:45:39;;;;;;;13.40;8.23;;;7.60;64.80;;;;;;2259428;56;21443;-70
2021/01/11 11:48:05;;;;;;;13.60;8.50;;;7.50;64.50;;;;;;2485137;55;20997;-70
2021/01/11 11:50:32;;;;;;;17.67;9.85;;;7.40;64.50;;;;;;2256567;56;21367;-69
2021/01/11 11:52:58;;;;;;;14.38;8.73;;;7.30;64.20;;;;;;2484108;55;21104;-69
2021/01/11 11:55:24;;;;;;;13.82;7.57;;;7.10;64.30;;;;;;2264543;56;21179;-69
2021/01/11 11:57:52;;;;;;;14.10;7.80;;;7.00;64.70;;;;;;2486080;55;20950;-70
2021/01/11 12:00:20;;;;;;;11.80;7.03;;;6.90;65.00;;;;;;2261776;56;20957;-69
2021/01/11 12:02:48;;;;;;;12.43;7.10;;;6.90;65.40;;;;;;2488718;55;20938;-69
2021/01/11 12:05:15;;;;;;;12.00;6.75;;;6.90;65.10;;;;;;2488630;55;21006;-69
2021/01/11 12:07:41;;;;;;;12.35;7.57;;;6.80;65.20;;;;;;2489686;55;21013;-69
2021/01/11 12:10:09;;;;;;;12.15;7.05;;;6.80;65.70;;;;;;2489642;55;20977;-69
2021/01/11 12:12:35;;;;;;;12.82;6.90;;;6.90;66.00;;;;;;2485741;55;20972;-70
2021/01/11 12:15:05;;;;;;;10.30;6.75;;;6.90;66.00;;;;;;2487787;55;20953;-69
2021/01/11 12:17:32;;;;;;;12.75;7.18;;;6.90;65.70;;;;;;2466539;55;21802;-69
2021/01/11 12:19:59;;;;;;;12.70;7.93;;;6.90;65.50;;;;;;2465376;55;21062;-69
2021/01/11 12:22:26;;;;;;;12.70;8.15;;;7.00;64.80;;;;;;2486496;55;21053;-71
2021/01/11 12:24:53;;;;;;;12.95;8.05;;;7.00;64.90;;;;;;2490814;55;20986;-69
2021/01/11 12:27:21;;;;;;;13.25;7.80;;;7.00;65.00;;;;;;2489546;55;21449;-69
2021/01/11 12:29:48;;;;;;;11.48;6.65;;;7.00;65.20;;;;;;2488893;55;21003;-70
2021/01/11 12:32:14;;;;;;;11.95;6.53;;;7.00;65.60;;;;;;2258359;56;21000;-68
2021/01/11 12:34:44;;;;;;;11.00;6.47;;;7.10;66.10;;;;;;2262580;56;20961;-68
2021/01/11 12:37:14;;;;;;;11.35;6.78;;;7.10;66.00;;;;;;2487443;55;20962;-69
2021/01/11 12:39:40;;;;;;;10.30;5.95;;;7.20;65.50;;;;;;2260989;56;20975;-69
2021/01/11 12:42:10;;;;;;;10.20;6.65;;;7.20;65.60;;;;;;2262591;56;21561;-69
2021/01/11 12:44:37;;;;;;;12.80;7.70;;;7.30;65.60;;;;;;2486697;55;20933;-70
2021/01/11 12:47:07;;;;;;;11.52;6.78;;;7.30;65.30;;;;;;2489163;55;20982;-71
2021/01/11 12:49:36;;;;;;;10.63;6.25;;;7.40;65.40;;;;;;2483457;55;21517;-71
2021/01/11 12:52:03;;;;;;;9.90;6.25;;;7.40;65.60;;;;;;2484703;55;21845;-71
2021/01/11 12:54:30;;;;;;;11.70;6.25;;;7.40;65.80;;;;;;2491310;55;21012;-70
2021/01/11 12:56:57;;;;;;;11.85;7.00;;;7.40;65.70;;;;;;2260486;56;20948;-70
2021/01/11 12:59:25;;;;;;;12.80;7.60;;;7.50;65.70;;;;;;2485657;55;20941;-70
2021/01/11 13:01:54;;;;;;;13.40;8.63;;;7.50;65.80;;;;;;2487989;55;21037;-71
2021/01/11 13:04:23;;;;;;;13.73;8.02;;;7.60;65.00;;;;;;2485339;55;20961;-70
2021/01/11 13:06:49;;;;;;;12.48;7.80;;;7.60;65.00;;;;;;2482763;55;20984;-70
2021/01/11 13:09:16;;;;;;;14.48;7.57;;;7.60;65.30;;;;;;2260781;56;20913;-70
2021/01/11 13:11:42;;;;;;;13.88;8.48;;;7.70;65.70;;;;;;2489265;55;20973;-70
2021/01/11 13:14:09;;;;;;;13.27;8.73;;;7.70;65.20;;;;;;2489538;55;21093;-70